x

Buoy I01 - Eastern Maine Shelf (44034) Wave Buoy

11:04am - Wed 1st Jul 2015 All times are EDT. -4 hours from GMT.

  • Sig Wave height 2.6ft
  • Peak Period 8s
  • Wind
    4mph
  • Sea Temp 51°f
  • Air Temp 53°f
  • Sea Pressure 1013.4mb
  • Buoy I01 - Eastern Maine Shelf
  • Buoy I01 - Eastern Maine Shelf

More Historic Weather Station data

Upgrade to MSW Pro to gain access to the past 30 days of data for over 8000 Wavebouys and Weather Stations around the globe.

Join Pro

Comparision Forecast

View Surf forecast
   
Wed 07/01 11:04am 2.5ft 8s 4
mph
1013.4mb 51f 53f
10:04am 2.5ft 8s 9 11 mph 1013.1mb 51f 53f
9:04am 3ft 8s 9
mph
1013mb 51f 53f
8:04am 3ft 8s 7
mph
1013.8mb 50f 53f
7:04am 2.5ft 8s 7
mph
1013.8mb 51f 53f
6:04am 2.5ft 8s 4
mph
1014.4mb 50f 51f
5:04am 2.5ft 8s 4
mph
1014.6mb 50f 51f
4:04am 3.5ft 8s 4
mph
1014.6mb 50f 50f
3:04am 2.5ft 8s 4
mph
1014.9mb 49f 53f
2:04am 3.5ft 8s 2
mph
1015.1mb 49f 53f
1:04am 3ft 6s 2 4 mph 1015.5mb 50f 53f
12:04am 3ft 6s 4
mph
1015.6mb 47f 52f
Tue 06/30 11:04pm 3ft 8s 4
mph
1015.7mb 48f 53f
10:04pm 3ft 8s 2 4 mph 1015.4mb 49f 52f
9:04pm 3ft 8s 4 7 mph 1014.9mb 49f 52f
8:04pm 3ft 8s 7 9 mph 1014.7mb 49f 53f
6:04pm 4ft 8s 4 7 mph 1015.3mb 48f 54f
5:04pm 3.5ft 8s 7
mph
1015.3mb 49f 54f
4:04pm 3.5ft 8s 7 9 mph 1015.5mb 49f 54f
3:04pm 3.5ft 8s 7 9 mph 1015.7mb 49f 54f
2:04pm 3.5ft 8s 7
mph
1015.6mb 47f 56f
1:04pm 3.5ft 8s 2
mph
1015.7mb 51f 59f
12:04pm 3.5ft 8s 2
mph
1015.7mb 48f 58f
11:04am 3.5ft 8s 2 4 mph 1015.8mb 48f 55f
10:04am 3.5ft 8s 4
mph
1015.5mb 48f 52f
9:04am 4ft 8s 4
mph
1015.5mb 48f 53f
8:04am 4.5ft 8s 2 4 mph 1015mb 49f 53f
7:04am 4.5ft 8s 2
mph
1014.6mb 49f 52f
6:04am 4.5ft 11s 2 4 mph 1014.5mb 49f 51f
5:04am 4ft 11s 4
mph
1014.1mb 49f 51f
4:04am 4ft 8s 4 7 mph 1013.9mb 49f 52f
3:04am 3.5ft 8s 2
mph
1013.6mb 49f 52f
2:04am 4.5ft 8s 4
mph
1013.2mb 49f 51f
1:04am 4.5ft 8s 2 4 mph 1013.3mb 49f 51f
12:04am 5ft 8s 2 4 mph 1013mb 48f 51f
Mon 06/29 11:04pm 5ft 8s 4 7 mph 1012.8mb 48f 51f
10:04pm 5ft 8s 7 9 mph 1012.3mb 49f 51f
9:04pm 5ft 8s 9
mph
1011.9mb 49f 51f
8:04pm 5ft 11s 9 11 mph 1011.3mb 49f 51f
7:04pm 6ft 11s 9 11 mph 1011mb 49f 51f
6:04pm 6ft 8s 13 16 mph 1010.8mb 49f 52f
5:04pm 6.5ft 8s 9
mph
1010.8mb 48f 51f
4:04pm 6.5ft 11s 11 13 mph 1010.9mb 48f 51f
3:04pm 5.5ft 8s 11 13 mph 1011mb 47f 50f
2:04pm 7ft 11s 11 16 mph 1010.5mb 47f 50f
1:04pm 5.5ft 11s 9 11 mph 1010.2mb 47f 50f
12:04pm 6.5ft 11s 11 13 mph 1009.7mb 47f 50f
11:04am 7ft 11s 11 13 mph 1009.3mb 47f 50f
10:04am 5ft 11s 9 13 mph 1008.8mb 47f 50f
9:04am 7ft 11s 16 18 mph 1008.2mb 47f 50f
8:04am 6.5ft 11s 13 16 mph 1007.7mb 47f 50f
7:04am 5ft 11s 9 11 mph 1007.2mb 47f 49f
6:04am 6ft 11s 11 13 mph 1006.6mb 47f 50f
5:04am 7.5ft 11s 9 11 mph 1005.5mb 47f 49f
4:04am 7.5ft 11s 9 16 mph 1004.7mb 47f 50f
3:04am 7.5ft 11s 9 13 mph 1003.9mb 46f 48f
2:04am 8.5ft 11s 16 18 mph 1003.5mb 47f 49f
1:04am 8.5ft 8s 18 22 mph 1003.8mb 47f 48f
12:04am 12ft 11s 20 25 mph 1004.1mb 47f 48f
Sun 06/28 11:04pm 11.5ft 11s 22 27 mph 1004.6mb 47f 48f
10:04pm 12.5ft 11s 22 27 mph 1005.3mb 47f 48f
9:04pm 13.5ft 11s 25 31 mph 1005.9mb 47f 48f
8:04pm 9.5ft 5s 27 31 mph 1006.7mb 47f 49f
7:04pm 8ft 8s 22 29 mph 1007.8mb 47f 48f
6:04pm 9.5ft 8s 25 31 mph 1008.4mb 46f 48f
5:04pm 8ft 8s 27 34 mph 1009.2mb 47f 49f
4:04pm 7.5ft 8s 25 31 mph 1010.9mb 46f 49f
3:04pm 7ft 6s 25 29 mph 1011.9mb 47f 49f
2:04pm 6ft 6s 22 29 mph 1013.5mb 48f 50f
1:04pm 4.5ft 6s 20 25 mph 1014.4mb 48f 50f
12:04pm 3.5ft 5s 20 25 mph 1015.4mb 48f 51f
10:04am 3.5ft 8s 13 16 mph 1017.3mb 48f 51f
9:04am 3ft 6s 11 16 mph 1017.5mb 48f 51f
8:04am 3ft 8s 9 11 mph 1018.6mb 49f 51f
7:04am 2ft 8s 11 13 mph 1018.4mb 48f 51f
6:04am 2ft 8s 9 11 mph 1019mb 49f 51f
5:04am 1.3ft 8s 9 11 mph 1019.3mb 49f 51f
4:04am 1.6ft 8s 9
mph
1019.7mb 49f 51f
3:04am 1.6ft 8s 7
mph
1020.1mb 49f 52f
2:04am 1.3ft 8s 7
mph
1020.6mb 48f 51f
1:04am 1.3ft 8s 4
mph
1021.4mb 49f 51f
12:04am 1.3ft 8s 4 7 mph 1022.1mb 50f 52f
Sat 06/27 11:04pm 1.6ft 8s 4 7 mph 1022.6mb 49f 52f
10:04pm 1.3ft 8s 4
mph
1022.3mb 50f 52f
9:04pm 1.3ft 8s 4
mph
1022.2mb 50f 52f
8:04pm 1.6ft 8s 4
mph
1022.1mb 51f 52f
7:04pm 1.3ft 8s 2
mph
1022.1mb 50f 53f
6:04pm 1.3ft 8s 2
mph
1022.2mb 50f 54f
5:04pm 1.3ft 8s 4
mph
1022.2mb 50f 53f